Dendermonde, Belgium
Current Conditions -  °F | °C
As of 9:50 PM on Thursday 18 Dec 2014 (Local Time) from EBAW Reporting Station
Broken Clouds Broken Clouds  
Wind Chill: 13°   Ceiling: 1400
Heat Index: 13°   Visibility: 6mi
Dew Point: 10°   Wind: 22mph
Humidity: 82%   Direction: 240°WSW
Pressure: 29.91"   Gusts: 37mph
Location:  51.03°N, 4.1°E
Report Text: EBAW 182050Z 24019G32KT 210V270 9999 BKN014 13/10 Q1013 NOSIG
Loading
Personal Weather Stations






























Interactive Weather Map New forecast layout! Learn more

10-Day Weather Forecast

Advertisements
Track Severe Weather on mobile